createdAt,value
2017-05-20T00:00:38.289Z,0
2017-05-20T00:01:18.777Z,0
2017-05-20T00:01:59.267Z,0
2017-05-20T00:02:39.794Z,0
2017-05-20T00:03:20.259Z,0
2017-05-20T00:04:00.702Z,0
2017-05-20T00:04:41.194Z,0
2017-05-20T00:06:59.010Z,0
2017-05-20T00:07:39.483Z,0
2017-05-20T00:08:19.950Z,0
2017-05-20T00:10:37.738Z,0
2017-05-20T00:13:05.606Z,0
2017-05-20T00:13:46.063Z,0
2017-05-20T00:14:26.520Z,0
2017-05-20T00:15:07.033Z,0
2017-05-20T00:15:47.569Z,0
2017-05-20T00:16:28.085Z,0
2017-05-20T00:17:08.562Z,0
2017-05-20T00:17:49.052Z,0
2017-05-20T00:18:29.530Z,0
2017-05-20T00:19:10.015Z,0
2017-05-20T00:19:50.500Z,0
2017-05-20T00:20:30.978Z,0
2017-05-20T00:21:11.477Z,0
2017-05-20T00:21:51.939Z,0
2017-05-20T00:22:32.360Z,0
2017-05-20T00:23:12.817Z,0
2017-05-20T00:23:53.302Z,0
2017-05-20T00:24:33.771Z,0
2017-05-20T00:25:14.253Z,0
2017-05-20T00:25:54.753Z,0
2017-05-20T00:26:35.242Z,0
2017-05-20T00:27:15.716Z,0
2017-05-20T00:27:56.202Z,0
2017-05-20T00:28:36.687Z,0
2017-05-20T00:29:17.192Z,0
2017-05-20T00:29:57.644Z,0
2017-05-20T00:30:38.133Z,0
2017-05-20T00:31:18.610Z,0
2017-05-20T00:31:59.109Z,0
2017-05-20T00:32:39.588Z,0
2017-05-20T00:33:20.063Z,0
2017-05-20T00:34:00.532Z,0
2017-05-20T00:34:40.986Z,0
2017-05-20T00:35:21.436Z,0
2017-05-20T00:36:01.930Z,0
2017-05-20T00:36:42.420Z,0
2017-05-20T00:37:22.886Z,0
2017-05-20T00:38:03.368Z,0
2017-05-20T00:38:43.813Z,0
2017-05-20T00:39:24.286Z,0
2017-05-20T00:40:04.782Z,0
2017-05-20T00:40:45.270Z,0
2017-05-20T00:41:25.761Z,0
2017-05-20T00:42:06.258Z,0
2017-05-20T00:42:46.744Z,0
2017-05-20T00:43:27.214Z,0
2017-05-20T00:44:07.657Z,0
2017-05-20T00:44:48.099Z,0
2017-05-20T00:45:28.554Z,0
2017-05-20T00:46:09.047Z,0
2017-05-20T00:46:49.529Z,0
2017-05-20T00:47:29.982Z,0
2017-05-20T00:48:10.455Z,0
2017-05-20T00:48:50.932Z,0
2017-05-20T00:49:31.361Z,0
2017-05-20T00:51:59.276Z,0
2017-05-20T00:52:39.758Z,0
2017-05-20T00:53:20.247Z,0
2017-05-20T00:54:00.716Z,0
2017-05-20T00:54:41.199Z,0
2017-05-20T00:55:21.657Z,0
2017-05-20T00:56:02.145Z,0
2017-05-20T00:56:42.619Z,0
2017-05-20T00:57:23.101Z,0
2017-05-20T00:58:03.588Z,0
2017-05-20T00:58:44.064Z,0
2017-05-20T01:01:01.849Z,0
2017-05-20T01:01:42.289Z,0
2017-05-20T01:02:22.783Z,0
2017-05-20T01:03:03.265Z,0
2017-05-20T01:03:43.739Z,0
2017-05-20T01:04:24.234Z,0
2017-05-20T01:05:04.717Z,0
2017-05-20T01:07:42.894Z,0
2017-05-20T01:08:23.373Z,0
2017-05-20T01:09:03.823Z,0
2017-05-20T01:09:44.339Z,0
2017-05-20T01:10:24.821Z,0
2017-05-20T01:11:05.335Z,0
2017-05-20T01:11:45.815Z,0
2017-05-20T01:12:26.313Z,0
2017-05-20T01:13:06.803Z,0
2017-05-20T01:13:47.286Z,0
2017-05-20T01:14:27.769Z,0
2017-05-20T01:15:08.250Z,0
2017-05-20T01:15:48.740Z,0
2017-05-20T01:16:29.197Z,0
2017-05-20T01:17:09.687Z,0
2017-05-20T01:17:50.157Z,0
2017-05-20T01:18:30.644Z,0
2017-05-20T01:19:11.131Z,0
2017-05-20T01:19:51.632Z,0
2017-05-20T01:20:32.102Z,0
2017-05-20T01:22:59.989Z,0
2017-05-20T01:23:40.472Z,0
2017-05-20T01:24:20.957Z,0
2017-05-20T01:25:01.400Z,0
2017-05-20T01:25:41.849Z,0
2017-05-20T01:26:22.355Z,0
2017-05-20T01:29:00.385Z,0
2017-05-20T01:29:40.859Z,0
2017-05-20T01:30:21.325Z,0
2017-05-20T01:31:01.813Z,0
2017-05-20T01:31:42.282Z,0
2017-05-20T01:32:22.732Z,0
2017-05-20T01:33:03.221Z,0
2017-05-20T01:35:36.227Z,0
2017-05-20T01:36:16.718Z,0
2017-05-20T01:36:57.195Z,0
2017-05-20T01:37:37.679Z,0
2017-05-20T01:38:18.147Z,0
2017-05-20T01:38:58.626Z,0
2017-05-20T01:39:39.107Z,0
2017-05-20T01:40:19.597Z,0
2017-05-20T01:41:00.074Z,0
2017-05-20T01:41:40.552Z,0
2017-05-20T01:42:21.031Z,0
2017-05-20T01:43:01.516Z,0
2017-05-20T01:43:42.005Z,0
2017-05-20T01:44:22.481Z,0
2017-05-20T01:45:02.941Z,0
2017-05-20T01:45:43.433Z,0
2017-05-20T01:46:23.910Z,0
2017-05-20T01:47:04.359Z,0
2017-05-20T01:47:44.822Z,0
2017-05-20T01:48:25.255Z,0
2017-05-20T01:49:05.727Z,0
2017-05-20T01:51:33.652Z,0
2017-05-20T01:52:14.122Z,0
2017-05-20T01:52:54.601Z,0
2017-05-20T01:53:35.049Z,0
2017-05-20T01:54:15.581Z,0
2017-05-20T01:54:56.055Z,0
2017-05-20T01:55:36.589Z,0
2017-05-20T01:56:17.088Z,0
2017-05-20T01:56:57.544Z,0
2017-05-20T01:57:37.965Z,0
2017-05-20T01:58:18.467Z,0
2017-05-20T01:58:58.907Z,0
2017-05-20T01:59:39.400Z,0
2017-05-20T02:00:19.846Z,0
2017-05-20T02:01:00.307Z,0
2017-05-20T02:01:40.755Z,0
2017-05-20T02:03:58.528Z,0
2017-05-20T02:04:39.020Z,0
2017-05-20T02:05:19.508Z,0
2017-05-20T02:05:59.975Z,0
2017-05-20T02:06:40.461Z,0
2017-05-20T02:07:20.955Z,0
2017-05-20T02:08:01.437Z,0
2017-05-20T02:08:41.913Z,0
2017-05-20T02:09:22.399Z,0
2017-05-20T02:10:02.894Z,0
2017-05-20T02:10:43.377Z,0
2017-05-20T02:11:23.854Z,0
2017-05-20T02:12:04.345Z,0
2017-05-20T02:12:44.829Z,0
2017-05-20T02:13:25.325Z,0
2017-05-20T02:14:05.791Z,0
2017-05-20T02:14:46.297Z,0
2017-05-20T02:15:26.786Z,0
2017-05-20T02:16:07.272Z,0
2017-05-20T02:16:47.749Z,0
2017-05-20T02:17:28.232Z,0
2017-05-20T02:18:08.725Z,0
2017-05-20T02:18:49.282Z,0
2017-05-20T02:19:29.681Z,0
2017-05-20T02:20:10.171Z,0
2017-05-20T02:20:50.630Z,0
2017-05-20T02:21:31.119Z,0
2017-05-20T02:22:11.597Z,0
2017-05-20T02:24:24.286Z,0
2017-05-20T02:25:04.759Z,0
2017-05-20T02:27:32.662Z,0
2017-05-20T02:30:10.728Z,0
2017-05-20T02:30:51.174Z,0
2017-05-20T02:31:31.648Z,0
2017-05-20T02:32:12.157Z,0
2017-05-20T02:32:52.647Z,0
2017-05-20T02:33:33.148Z,0
2017-05-20T02:34:13.639Z,0
2017-05-20T02:34:54.134Z,0
2017-05-20T02:35:34.604Z,0
2017-05-20T02:36:15.067Z,0
2017-05-20T02:36:55.499Z,0
2017-05-20T02:37:35.962Z,0
2017-05-20T02:40:14.052Z,0
2017-05-20T02:40:54.531Z,0
2017-05-20T02:41:34.999Z,0
2017-05-20T02:42:15.488Z,0
2017-05-20T02:42:55.973Z,0
2017-05-20T02:43:36.416Z,0
2017-05-20T02:44:16.866Z,0
2017-05-20T02:44:57.353Z,0
2017-05-20T02:45:37.842Z,0
2017-05-20T02:46:18.316Z,0
2017-05-20T02:46:58.782Z,0
2017-05-20T02:47:39.281Z,0
2017-05-20T02:48:19.732Z,0
2017-05-20T02:49:00.193Z,0
2017-05-20T02:49:40.662Z,0
2017-05-20T02:50:21.146Z,0
2017-05-20T02:51:01.626Z,0
2017-05-20T02:51:42.100Z,0
2017-05-20T02:52:22.580Z,0
2017-05-20T02:53:03.051Z,0
2017-05-20T02:55:15.748Z,0
2017-05-20T02:55:56.231Z,0
2017-05-20T02:56:36.744Z,0
2017-05-20T02:57:17.207Z,0
2017-05-20T02:57:57.688Z,0
2017-05-20T02:58:38.170Z,0
2017-05-20T02:59:18.673Z,0
2017-05-20T02:59:59.167Z,0
2017-05-20T03:00:39.646Z,0
2017-05-20T03:01:20.153Z,0
2017-05-20T03:02:00.649Z,0
2017-05-20T03:02:41.156Z,0
2017-05-20T03:03:21.615Z,0
2017-05-20T03:04:02.066Z,0
2017-05-20T03:04:42.533Z,0
2017-05-20T03:05:23.033Z,0
2017-05-20T03:06:03.518Z,0
2017-05-20T03:06:43.990Z,0
2017-05-20T03:07:24.502Z,0
2017-05-20T03:08:04.979Z,0
2017-05-20T03:08:45.432Z,0
2017-05-20T03:10:58.151Z,0
2017-05-20T03:11:38.620Z,0
2017-05-20T03:12:19.097Z,0
2017-05-20T03:12:59.575Z,0
2017-05-20T03:13:40.071Z,0
2017-05-20T03:14:20.558Z,0
2017-05-20T03:15:01.056Z,0
2017-05-20T03:15:41.532Z,0
2017-05-20T03:16:22.010Z,0
2017-05-20T03:17:02.479Z,0
2017-05-20T03:17:42.967Z,0
2017-05-20T03:18:23.442Z,0
2017-05-20T03:19:03.921Z,0
2017-05-20T03:19:44.403Z,0
2017-05-20T03:20:24.898Z,0
2017-05-20T03:21:05.368Z,0
2017-05-20T03:21:45.825Z,0
2017-05-20T03:22:26.311Z,0
2017-05-20T03:23:06.789Z,0
2017-05-20T03:23:47.264Z,0
2017-05-20T03:24:27.768Z,0
2017-05-20T03:25:08.228Z,0
2017-05-20T03:25:48.719Z,0
2017-05-20T03:26:29.210Z,0
2017-05-20T03:27:09.685Z,0
2017-05-20T03:27:50.160Z,0
2017-05-20T03:28:30.657Z,0
2017-05-20T03:29:11.144Z,0
2017-05-20T03:29:51.634Z,0
2017-05-20T03:30:32.128Z,0
2017-05-20T03:31:12.619Z,0
2017-05-20T03:31:53.257Z,0
2017-05-20T03:32:33.732Z,0
2017-05-20T03:33:14.218Z,0
2017-05-20T03:33:54.725Z,5
2017-05-20T03:34:35.214Z,5
2017-05-20T03:35:15.697Z,5
2017-05-20T03:35:56.175Z,5
2017-05-20T03:36:36.628Z,5
2017-05-20T03:37:17.122Z,5
2017-05-20T03:37:57.599Z,5
2017-05-20T03:38:38.067Z,5
2017-05-20T03:39:18.552Z,5
2017-05-20T03:41:36.320Z,5
2017-05-20T03:42:16.777Z,5
2017-05-20T03:42:57.239Z,10
2017-05-20T03:43:37.684Z,10
2017-05-20T03:44:18.142Z,10
2017-05-20T03:46:51.125Z,10
2017-05-20T03:47:31.598Z,10
2017-05-20T03:48:12.072Z,10
2017-05-20T03:48:52.551Z,10
2017-05-20T03:49:33.020Z,15
2017-05-20T03:50:13.458Z,15
2017-05-20T03:52:31.236Z,15
2017-05-20T03:53:11.703Z,15
2017-05-20T03:53:52.197Z,15
2017-05-20T03:54:32.669Z,15
2017-05-20T03:55:13.143Z,15
2017-05-20T03:55:53.618Z,20
2017-05-20T03:56:34.121Z,20
2017-05-20T03:57:14.591Z,20
2017-05-20T03:57:55.071Z,20
2017-05-20T03:58:35.553Z,20
2017-05-20T03:59:16.018Z,20
2017-05-20T03:59:56.430Z,20
2017-05-20T04:00:36.862Z,20
2017-05-20T04:01:17.292Z,20
2017-05-20T04:03:30.002Z,25
2017-05-20T04:04:10.462Z,25
2017-05-20T04:04:50.933Z,25
2017-05-20T04:05:31.402Z,25
2017-05-20T04:06:11.875Z,25
2017-05-20T04:06:52.382Z,30
2017-05-20T04:07:32.861Z,30
2017-05-20T04:08:13.306Z,30
2017-05-20T04:08:53.816Z,30
2017-05-20T04:09:34.314Z,30
2017-05-20T04:10:14.798Z,30
2017-05-20T04:10:55.281Z,30
2017-05-20T04:11:35.762Z,30
2017-05-20T04:12:16.238Z,35
2017-05-20T04:12:56.718Z,35
2017-05-20T04:13:37.197Z,35
2017-05-20T04:16:10.190Z,35
2017-05-20T04:16:50.667Z,35
2017-05-20T04:17:31.146Z,40
2017-05-20T04:18:11.653Z,40
2017-05-20T04:18:52.119Z,40
2017-05-20T04:19:32.600Z,40
2017-05-20T04:20:13.062Z,40
2017-05-20T04:20:53.548Z,40
2017-05-20T04:21:33.991Z,40
2017-05-20T04:23:51.788Z,45
2017-05-20T04:24:32.874Z,45
2017-05-20T04:25:13.344Z,50
2017-05-20T04:25:53.808Z,50
2017-05-20T04:26:34.276Z,50
2017-05-20T04:27:14.763Z,55
2017-05-20T04:27:55.250Z,55
2017-05-20T04:28:35.716Z,55
2017-05-20T04:29:16.214Z,60
2017-05-20T04:29:56.701Z,60
2017-05-20T04:30:37.155Z,65
2017-05-20T04:31:17.611Z,70
2017-05-20T04:33:45.536Z,75
2017-05-20T04:34:26.030Z,70
2017-05-20T04:35:06.517Z,70
2017-05-20T04:35:46.982Z,70
2017-05-20T04:36:27.465Z,65
2017-05-20T04:37:07.962Z,65
2017-05-20T04:37:48.438Z,65
2017-05-20T04:40:06.231Z,80
2017-05-20T04:40:46.683Z,85
2017-05-20T04:41:27.206Z,95
2017-05-20T04:42:07.681Z,100
2017-05-20T04:42:48.179Z,100
2017-05-20T04:43:28.626Z,100
2017-05-20T04:44:09.119Z,90
2017-05-20T04:44:49.599Z,85
2017-05-20T04:45:30.076Z,90
2017-05-20T04:46:10.567Z,100
2017-05-20T04:46:51.046Z,105
2017-05-20T04:47:31.515Z,105
2017-05-20T04:48:12.004Z,105
2017-05-20T04:48:52.460Z,105
2017-05-20T04:49:32.944Z,110
2017-05-20T04:50:13.438Z,110
2017-05-20T04:50:53.917Z,110
2017-05-20T04:51:34.388Z,115
2017-05-20T04:52:14.839Z,115
2017-05-20T04:54:32.651Z,120
2017-05-20T04:55:13.126Z,120
2017-05-20T04:55:53.619Z,120
2017-05-20T04:56:34.098Z,120
2017-05-20T04:59:07.118Z,130
2017-05-20T04:59:47.561Z,130
2017-05-20T05:00:28.052Z,130
2017-05-20T05:01:08.545Z,130
2017-05-20T05:01:49.032Z,135
2017-05-20T05:02:29.507Z,135
2017-05-20T05:03:10.021Z,135
2017-05-20T05:03:50.513Z,135
2017-05-20T05:04:30.995Z,140
2017-05-20T05:05:11.482Z,140
2017-05-20T05:05:51.955Z,140
2017-05-20T05:06:32.437Z,140
2017-05-20T05:07:12.912Z,140
2017-05-20T05:07:53.400Z,140
2017-05-20T05:08:33.886Z,145
2017-05-20T05:09:14.380Z,140
2017-05-20T05:09:54.864Z,145
2017-05-20T05:10:35.325Z,145
2017-05-20T05:11:15.786Z,145
2017-05-20T05:11:56.265Z,145
2017-05-20T05:12:36.762Z,140
2017-05-20T05:13:17.240Z,145
2017-05-20T05:13:57.734Z,145
2017-05-20T05:14:38.166Z,145
2017-05-20T05:15:18.591Z,150
2017-05-20T05:15:59.050Z,150
2017-05-20T05:16:39.544Z,150
2017-05-20T05:17:19.962Z,150
2017-05-20T05:18:00.430Z,150
2017-05-20T05:18:40.881Z,155
2017-05-20T05:19:21.375Z,155
2017-05-20T05:20:01.841Z,155
2017-05-20T05:20:42.339Z,155
2017-05-20T05:21:23.593Z,160
2017-05-20T05:22:04.032Z,160
2017-05-20T05:22:44.483Z,160
2017-05-20T05:23:24.944Z,160
2017-05-20T05:24:05.455Z,165
2017-05-20T05:24:45.948Z,165
2017-05-20T05:25:26.432Z,165
2017-05-20T05:26:06.921Z,170
2017-05-20T05:26:47.381Z,170
2017-05-20T05:27:27.898Z,170
2017-05-20T05:28:08.365Z,175
2017-05-20T05:28:48.858Z,175
2017-05-20T05:29:29.359Z,175
2017-05-20T05:30:09.844Z,180
2017-05-20T05:30:50.323Z,180
2017-05-20T05:31:30.813Z,180
2017-05-20T05:32:11.267Z,180
2017-05-20T05:32:51.727Z,185
2017-05-20T05:33:32.209Z,185
2017-05-20T05:34:12.692Z,185
2017-05-20T05:34:53.183Z,190
2017-05-20T05:35:33.670Z,190
2017-05-20T05:36:14.140Z,190
2017-05-20T05:36:54.630Z,195
2017-05-20T05:37:35.088Z,195
2017-05-20T05:38:15.536Z,195
2017-05-20T05:38:56.002Z,195
2017-05-20T05:39:36.457Z,200
2017-05-20T05:40:16.947Z,200
2017-05-20T05:40:57.436Z,200
2017-05-20T05:41:37.964Z,205
2017-05-20T05:42:18.396Z,205
2017-05-20T05:42:58.881Z,205
2017-05-20T05:43:39.366Z,210
2017-05-20T05:44:19.846Z,210
2017-05-20T05:45:00.313Z,215
2017-05-20T05:47:18.105Z,215
2017-05-20T05:47:58.610Z,210
2017-05-20T05:48:39.077Z,215
2017-05-20T05:49:19.562Z,220
2017-05-20T05:50:00.056Z,220
2017-05-20T05:50:40.542Z,225
2017-05-20T05:51:21.029Z,220
2017-05-20T05:52:01.518Z,220
2017-05-20T05:52:42.029Z,225
2017-05-20T05:53:22.521Z,230
2017-05-20T05:56:00.563Z,235
2017-05-20T05:56:41.054Z,235
2017-05-20T05:57:21.557Z,240
2017-05-20T05:58:02.036Z,240
2017-05-20T05:58:42.511Z,240
2017-05-20T05:59:23.012Z,245
2017-05-20T06:00:03.505Z,245
2017-05-20T06:00:43.977Z,250
2017-05-20T06:01:24.438Z,250
2017-05-20T06:02:04.855Z,255
2017-05-20T06:02:45.343Z,255
2017-05-20T06:03:25.916Z,255
2017-05-20T06:04:06.332Z,260
2017-05-20T06:04:46.823Z,260
2017-05-20T06:05:27.299Z,260
2017-05-20T06:06:07.781Z,265
2017-05-20T06:06:48.262Z,265
2017-05-20T06:07:28.741Z,270
2017-05-20T06:08:09.247Z,270
2017-05-20T06:08:49.740Z,270
2017-05-20T06:09:30.207Z,275
2017-05-20T06:10:10.678Z,275
2017-05-20T06:10:51.140Z,275
2017-05-20T06:11:31.606Z,275
2017-05-20T06:12:12.064Z,275
2017-05-20T06:14:24.875Z,285
2017-05-20T06:15:05.272Z,285
2017-05-20T06:15:45.790Z,285
2017-05-20T06:16:26.280Z,290
2017-05-20T06:17:06.762Z,290
2017-05-20T06:17:47.260Z,295
2017-05-20T06:18:27.691Z,295
2017-05-20T06:19:08.176Z,300
2017-05-20T06:21:26.017Z,305
2017-05-20T06:22:06.468Z,305
2017-05-20T06:22:46.952Z,310
2017-05-20T06:23:27.438Z,315
2017-05-20T06:24:07.945Z,315
2017-05-20T06:24:48.446Z,320
2017-05-20T06:25:28.932Z,325
2017-05-20T06:27:56.826Z,325
2017-05-20T06:28:37.341Z,325
2017-05-20T06:29:17.809Z,335
2017-05-20T06:29:58.305Z,330
2017-05-20T06:30:38.754Z,335
2017-05-20T06:32:56.531Z,345
2017-05-20T06:33:37.019Z,345
2017-05-20T06:34:17.506Z,350
2017-05-20T06:34:57.987Z,355
2017-05-20T06:35:38.404Z,355
2017-05-20T06:36:18.842Z,360
2017-05-20T06:36:59.333Z,365
2017-05-20T06:37:39.801Z,365
2017-05-20T06:38:20.283Z,370
2017-05-20T06:40:58.352Z,370
2017-05-20T06:41:38.853Z,375
2017-05-20T06:42:19.346Z,380
2017-05-20T06:42:59.762Z,380
2017-05-20T06:43:40.207Z,385
2017-05-20T06:44:20.730Z,390
2017-05-20T06:45:01.180Z,400
2017-05-20T06:45:41.680Z,405
2017-05-20T06:46:22.155Z,415
2017-05-20T06:47:02.633Z,415
2017-05-20T06:47:43.080Z,415
2017-05-20T06:48:23.527Z,420
2017-05-20T06:49:03.979Z,420
2017-05-20T06:49:44.447Z,425
2017-05-20T06:50:24.943Z,430
2017-05-20T06:51:05.421Z,435
2017-05-20T06:51:45.928Z,440
2017-05-20T06:52:26.415Z,445
2017-05-20T06:53:06.894Z,450
2017-05-20T06:53:47.374Z,455
2017-05-20T06:54:27.859Z,455
2017-05-20T06:55:08.360Z,460
2017-05-20T06:55:48.819Z,465
2017-05-20T06:56:29.312Z,470
2017-05-20T06:57:09.766Z,465
2017-05-20T06:57:50.208Z,475
2017-05-20T06:58:30.651Z,480
2017-05-20T06:59:11.109Z,480
2017-05-20T06:59:51.553Z,485
2017-05-20T07:02:04.297Z,500
2017-05-20T07:02:44.787Z,505
2017-05-20T07:03:25.278Z,510
2017-05-20T07:04:05.743Z,515
2017-05-20T07:04:46.194Z,520
2017-05-20T07:05:26.638Z,520
2017-05-20T07:06:07.123Z,530
2017-05-20T07:06:47.576Z,530
2017-05-20T07:07:28.018Z,535
2017-05-20T07:09:55.950Z,560
2017-05-20T07:10:36.435Z,565
2017-05-20T07:11:16.907Z,575
2017-05-20T07:11:57.386Z,575
2017-05-20T07:12:37.869Z,565
2017-05-20T07:13:18.349Z,580
2017-05-20T07:13:58.839Z,595
2017-05-20T07:14:39.323Z,600
2017-05-20T07:15:19.839Z,610
2017-05-20T07:17:37.658Z,630
2017-05-20T07:18:18.153Z,630
2017-05-20T07:18:58.639Z,635
2017-05-20T07:19:39.065Z,640
2017-05-20T07:20:19.520Z,645
2017-05-20T07:20:59.986Z,655
2017-05-20T07:21:40.449Z,665
2017-05-20T07:22:20.896Z,670
2017-05-20T07:23:01.358Z,680
2017-05-20T07:23:41.866Z,680
2017-05-20T07:24:22.363Z,685
2017-05-20T07:25:02.846Z,690
2017-05-20T07:25:43.326Z,700
2017-05-20T07:26:23.825Z,710
2017-05-20T07:27:04.313Z,720
2017-05-20T07:27:44.753Z,730
2017-05-20T07:28:25.242Z,735
2017-05-20T07:29:05.702Z,745
2017-05-20T07:29:46.184Z,770
2017-05-20T07:30:26.624Z,780
2017-05-20T07:32:39.372Z,820
2017-05-20T07:33:19.851Z,835
2017-05-20T07:34:00.384Z,855
2017-05-20T07:34:40.833Z,870
2017-05-20T07:35:21.325Z,870
2017-05-20T07:36:01.848Z,895
2017-05-20T07:36:42.333Z,920
2017-05-20T07:37:22.828Z,990
2017-05-20T07:38:03.331Z,1190
2017-05-20T07:38:43.841Z,2410
2017-05-20T07:39:24.329Z,3785
2017-05-20T07:40:04.833Z,4100
2017-05-20T07:40:45.320Z,3440
2017-05-20T07:41:25.806Z,2155
2017-05-20T07:42:06.296Z,1650
2017-05-20T07:42:46.803Z,1275
2017-05-20T07:43:27.302Z,920
2017-05-20T07:44:07.829Z,585
2017-05-20T07:44:48.307Z,505
2017-05-20T07:45:28.852Z,470
2017-05-20T07:46:09.338Z,460
2017-05-20T07:46:49.806Z,455
2017-05-20T07:47:30.301Z,455
2017-05-20T07:48:10.785Z,450
2017-05-20T07:48:51.272Z,455
2017-05-20T07:49:31.727Z,445
2017-05-20T07:50:12.190Z,450
2017-05-20T07:50:52.677Z,440
2017-05-20T07:51:33.193Z,440
2017-05-20T07:54:11.381Z,480
2017-05-20T07:54:51.881Z,490
2017-05-20T07:55:32.393Z,505
2017-05-20T07:56:12.837Z,535
2017-05-20T07:56:53.327Z,560
2017-05-20T07:57:33.830Z,590
2017-05-20T07:58:14.271Z,600
2017-05-20T07:58:54.767Z,580
2017-05-20T07:59:35.261Z,625
2017-05-20T08:00:15.656Z,225
2017-05-20T08:00:56.134Z,705
2017-05-20T08:01:36.539Z,755
2017-05-20T08:02:17.042Z,360
2017-05-20T08:04:34.855Z,825
2017-05-20T08:07:07.853Z,1125
2017-05-20T08:07:48.353Z,1100
2017-05-20T08:08:28.847Z,1075
2017-05-20T08:09:09.340Z,1260
2017-05-20T08:09:49.827Z,1320
2017-05-20T08:10:30.323Z,1300
2017-05-20T08:11:10.766Z,1150
2017-05-20T08:11:51.233Z,1295
2017-05-20T08:14:09.056Z,1435
2017-05-20T08:14:49.551Z,1195
2017-05-20T08:15:30.054Z,1530
2017-05-20T08:16:10.557Z,305
2017-05-20T08:16:51.045Z,310
2017-05-20T08:17:31.491Z,450
2017-05-20T08:18:11.970Z,275
2017-05-20T08:18:52.464Z,225
2017-05-20T08:19:32.960Z,255
2017-05-20T08:20:13.450Z,260
2017-05-20T08:20:53.953Z,255
2017-05-20T08:21:34.428Z,290
2017-05-20T08:22:14.875Z,315
2017-05-20T08:22:55.349Z,495
2017-05-20T08:23:35.782Z,1235
2017-05-20T08:26:08.799Z,1855
2017-05-20T08:26:49.234Z,1795
2017-05-20T08:29:07.157Z,1225
2017-05-20T08:29:47.641Z,2890
2017-05-20T08:30:28.119Z,1060
2017-05-20T08:31:08.611Z,515
2017-05-20T08:31:49.112Z,2755
2017-05-20T08:32:29.591Z,2775
2017-05-20T08:33:10.100Z,2725
2017-05-20T08:33:50.578Z,2670
2017-05-20T08:34:31.072Z,2635
2017-05-20T08:35:11.540Z,2760
2017-05-20T08:35:52.021Z,2335
2017-05-20T08:36:32.502Z,2740
2017-05-20T08:37:13.003Z,2555
2017-05-20T08:37:53.491Z,485
2017-05-20T08:38:33.969Z,410
2017-05-20T08:39:14.437Z,330
2017-05-20T08:39:54.929Z,2255
2017-05-20T08:40:35.385Z,1400
2017-05-20T08:41:15.860Z,780
2017-05-20T08:41:56.384Z,610
2017-05-20T08:42:36.821Z,580
2017-05-20T08:45:04.791Z,395
2017-05-20T08:45:45.275Z,595
2017-05-20T08:46:25.762Z,530
2017-05-20T08:47:06.221Z,510
2017-05-20T08:47:46.688Z,505
2017-05-20T08:49:59.398Z,480
2017-05-20T08:50:39.910Z,515
2017-05-20T08:51:20.341Z,1020
2017-05-20T08:52:00.833Z,1755
2017-05-20T08:52:41.330Z,2360
2017-05-20T08:53:21.814Z,2595
2017-05-20T08:54:02.301Z,2720
2017-05-20T08:54:42.771Z,2725
2017-05-20T08:55:23.265Z,2780
2017-05-20T08:56:04.002Z,2840
2017-05-20T08:56:44.473Z,2885
2017-05-20T08:57:24.961Z,2905
2017-05-20T08:59:37.696Z,2765
2017-05-20T09:00:18.205Z,2970
2017-05-20T09:00:58.675Z,2845
2017-05-20T09:01:39.135Z,2910
2017-05-20T09:02:19.596Z,2985
2017-05-20T09:03:00.053Z,2925
2017-05-20T09:03:40.543Z,2885
2017-05-20T09:04:21.003Z,2990
2017-05-20T09:05:01.484Z,3035
2017-05-20T09:05:41.950Z,2900
2017-05-20T09:08:14.978Z,3020
2017-05-20T09:08:55.474Z,3075
2017-05-20T09:09:35.985Z,2960
2017-05-20T09:10:16.439Z,2940
2017-05-20T09:10:56.879Z,3015
2017-05-20T09:13:14.697Z,2955
2017-05-20T09:13:55.174Z,2865
2017-05-20T09:14:35.663Z,2915
2017-05-20T09:15:16.161Z,2960
2017-05-20T09:15:56.624Z,2960
2017-05-20T09:16:37.098Z,2870
2017-05-20T09:17:17.581Z,2815
2017-05-20T09:17:58.044Z,2775
2017-05-20T09:20:36.449Z,2900
2017-05-20T09:21:16.932Z,2930
2017-05-20T09:21:57.411Z,2925
2017-05-20T09:22:37.888Z,2830
2017-05-20T09:23:18.412Z,2815
2017-05-20T09:23:58.859Z,2950
2017-05-20T09:24:39.383Z,3030
2017-05-20T09:25:19.824Z,3010
2017-05-20T09:26:00.309Z,2725
2017-05-20T09:26:40.823Z,2475
2017-05-20T09:27:21.282Z,2185
2017-05-20T09:28:01.753Z,1765
2017-05-20T09:28:42.223Z,1330
2017-05-20T09:29:22.708Z,1005
2017-05-20T09:30:03.196Z,850
2017-05-20T09:30:43.676Z,790
2017-05-20T09:31:24.140Z,795
2017-05-20T09:32:04.603Z,835
2017-05-20T09:32:45.061Z,855
2017-05-20T09:33:25.586Z,900
2017-05-20T09:34:06.062Z,895
2017-05-20T09:34:46.542Z,875
2017-05-20T09:35:27.030Z,920
2017-05-20T09:36:07.505Z,550
2017-05-20T09:36:47.994Z,545
2017-05-20T09:37:28.496Z,445
2017-05-20T09:38:08.972Z,415
2017-05-20T09:38:49.467Z,430
2017-05-20T09:39:29.934Z,400
2017-05-20T09:42:08.012Z,2040
2017-05-20T09:42:48.514Z,455
2017-05-20T09:43:28.982Z,3605
2017-05-20T09:44:09.468Z,3415
2017-05-20T09:44:49.964Z,3335
2017-05-20T09:45:30.439Z,2340
2017-05-20T09:46:10.902Z,440
2017-05-20T09:46:51.387Z,555
2017-05-20T09:47:31.846Z,520
2017-05-20T09:48:12.319Z,615
2017-05-20T09:48:52.781Z,3570
2017-05-20T09:49:33.253Z,3630
2017-05-20T09:52:06.293Z,3670
2017-05-20T09:52:46.777Z,3615
2017-05-20T09:53:27.274Z,3650
2017-05-20T09:54:07.772Z,3700
2017-05-20T09:54:48.270Z,3610
2017-05-20T09:55:28.749Z,3405
2017-05-20T09:57:47.374Z,3305
2017-05-20T09:58:27.870Z,3400
2017-05-20T09:59:08.355Z,960
2017-05-20T09:59:48.852Z,575
2017-05-20T10:00:29.347Z,645
2017-05-20T10:01:09.799Z,665
2017-05-20T10:01:50.289Z,840
2017-05-20T10:02:30.771Z,675
2017-05-20T10:03:11.261Z,635
2017-05-20T10:03:51.730Z,3565
2017-05-20T10:04:32.180Z,1450
2017-05-20T10:07:10.289Z,785
2017-05-20T10:07:50.777Z,850
2017-05-20T10:08:31.271Z,670
2017-05-20T10:09:11.743Z,550
2017-05-20T10:09:52.226Z,570
2017-05-20T10:10:32.759Z,585
2017-05-20T10:11:13.201Z,575
2017-05-20T10:11:53.697Z,585
2017-05-20T10:12:34.178Z,590
2017-05-20T10:13:14.671Z,615
2017-05-20T10:13:55.136Z,715
2017-05-20T10:16:12.973Z,1460
2017-05-20T10:16:53.450Z,645
2017-05-20T10:17:33.919Z,540
2017-05-20T10:18:14.416Z,445
2017-05-20T10:18:54.929Z,410
2017-05-20T10:19:35.348Z,380
2017-05-20T10:20:15.805Z,310
2017-05-20T10:20:56.282Z,260
2017-05-20T10:21:36.740Z,230
2017-05-20T10:22:17.230Z,205
2017-05-20T10:22:57.658Z,180
2017-05-20T10:23:38.155Z,170
2017-05-20T10:24:18.617Z,165
2017-05-20T10:24:59.091Z,165
2017-05-20T10:25:39.560Z,165
2017-05-20T10:28:07.518Z,160
2017-05-20T10:28:47.984Z,165
2017-05-20T10:29:28.483Z,175
2017-05-20T10:30:08.982Z,185
2017-05-20T10:30:49.447Z,195
2017-05-20T10:31:29.925Z,205
2017-05-20T10:32:10.441Z,225
2017-05-20T10:32:50.904Z,240
2017-05-20T10:33:31.436Z,260
2017-05-20T10:34:11.921Z,285
2017-05-20T10:34:52.363Z,305
2017-05-20T10:35:32.824Z,330
2017-05-20T10:37:50.798Z,390
2017-05-20T10:38:31.259Z,405
2017-05-20T10:41:04.305Z,445
2017-05-20T10:41:44.761Z,465
2017-05-20T10:42:25.242Z,485
2017-05-20T10:43:05.712Z,485
2017-05-20T10:43:46.221Z,480
2017-05-20T10:44:26.704Z,495
2017-05-20T10:45:07.174Z,510
2017-05-20T10:45:48.484Z,530
2017-05-20T10:46:29.003Z,565
2017-05-20T10:47:09.456Z,605
2017-05-20T10:47:49.937Z,645
2017-05-20T10:48:30.424Z,685
2017-05-20T10:49:11.017Z,740
2017-05-20T10:49:51.513Z,1560
2017-05-20T10:50:32.028Z,1135
2017-05-20T10:51:12.528Z,2855
2017-05-20T10:51:53.014Z,955
2017-05-20T10:52:33.601Z,1265
2017-05-20T10:53:14.174Z,1625
2017-05-20T10:53:54.608Z,1795
2017-05-20T10:54:35.074Z,1665
2017-05-20T10:55:15.529Z,2645
2017-05-20T10:55:56.063Z,1310
2017-05-20T10:56:36.517Z,1455
2017-05-20T10:57:16.966Z,1550
2017-05-20T10:57:57.435Z,1765
2017-05-20T11:00:25.396Z,4330
2017-05-20T11:01:05.875Z,1405
2017-05-20T11:01:46.363Z,1075
2017-05-20T11:02:26.850Z,1280
2017-05-20T11:03:07.377Z,895
2017-05-20T11:03:47.883Z,1095
2017-05-20T11:04:28.371Z,840
2017-05-20T11:05:08.862Z,690
2017-05-20T11:05:49.365Z,660
2017-05-20T11:06:29.846Z,620
2017-05-20T11:07:10.319Z,650
2017-05-20T11:07:50.838Z,690
2017-05-20T11:08:31.319Z,700
2017-05-20T11:09:11.798Z,690
2017-05-20T11:09:52.280Z,685
2017-05-20T11:10:32.739Z,705
2017-05-20T11:11:13.243Z,710
2017-05-20T11:11:53.695Z,735
2017-05-20T11:12:34.172Z,750